createdAt,value
2019-04-16T00:00:42.500Z,8.5
2019-04-16T00:01:44.687Z,8.4
2019-04-16T00:02:42.256Z,8.4
2019-04-16T00:03:43.780Z,8.5
2019-04-16T00:04:45.178Z,8.5
2019-04-16T00:05:46.575Z,8.5
2019-04-16T00:06:48.169Z,8.5
2019-04-16T00:07:49.557Z,8.6
2019-04-16T00:08:50.955Z,8.4
2019-04-16T00:09:52.488Z,8.5
2019-04-16T00:10:53.882Z,8.5
2019-04-16T00:11:55.280Z,8.5
2019-04-16T00:12:56.810Z,8.5
2019-04-16T00:14:03.030Z,8.4
2019-04-16T00:14:59.564Z,8.4
2019-04-16T00:16:01.177Z,8.3
2019-04-16T00:17:02.528Z,8.3
2019-04-16T00:18:03.924Z,8.3
2019-04-16T00:19:06.538Z,8.3
2019-04-16T00:20:06.968Z,8.4
2019-04-16T00:21:09.995Z,8.4
2019-04-16T00:22:12.423Z,8.4
2019-04-16T00:23:11.136Z,8.4
2019-04-16T00:24:12.539Z,8.3
2019-04-16T00:25:14.095Z,8.4
2019-04-16T00:26:15.488Z,8.2
2019-04-16T00:27:16.888Z,8.3
2019-04-16T00:28:18.417Z,8.2
2019-04-16T00:29:19.806Z,8.3
2019-04-16T00:30:21.206Z,8.3
2019-04-16T00:31:22.671Z,8.3
2019-04-16T00:32:26.045Z,8.3
2019-04-16T00:33:25.557Z,8.3
2019-04-16T00:34:26.955Z,8.3
2019-04-16T00:35:28.505Z,8.3
2019-04-16T00:36:29.897Z,8.2
2019-04-16T00:37:31.381Z,8.3
2019-04-16T00:38:40.565Z,8.2
2019-04-16T00:39:34.261Z,8.2
2019-04-16T00:40:35.657Z,8.1
2019-04-16T00:41:37.053Z,8.2
2019-04-16T00:42:38.518Z,8.2
2019-04-16T00:43:39.916Z,8.2
2019-04-16T00:44:41.316Z,8.2
2019-04-16T00:45:42.902Z,8.1
2019-04-16T00:46:44.298Z,8.0
2019-04-16T00:47:47.954Z,7.9
2019-04-16T00:48:47.058Z,8.0
2019-04-16T00:49:48.450Z,7.9
2019-04-16T00:50:50.043Z,8.0
2019-04-16T00:51:51.437Z,8.0
2019-04-16T00:52:52.834Z,7.9
2019-04-16T00:53:54.426Z,7.9
2019-04-16T00:54:55.824Z,8.1
2019-04-16T00:55:57.223Z,8.0
2019-04-16T00:56:58.751Z,8.0
2019-04-16T00:58:00.143Z,8.0
2019-04-16T00:59:01.542Z,8.0
2019-04-16T01:00:03.007Z,8.0
2019-04-16T01:01:04.448Z,8.1
2019-04-16T01:02:05.798Z,8.0
2019-04-16T01:03:07.396Z,8.0
2019-04-16T01:04:09.116Z,8.0
2019-04-16T01:05:11.187Z,7.9
2019-04-16T01:06:12.738Z,7.9
2019-04-16T01:07:14.133Z,7.9
2019-04-16T01:08:15.557Z,7.9
2019-04-16T01:09:17.004Z,7.9
2019-04-16T01:10:18.434Z,7.9
2019-04-16T01:11:19.833Z,7.8
2019-04-16T01:12:21.316Z,7.8
2019-04-16T01:13:24.496Z,7.8
2019-04-16T01:14:26.632Z,7.8
2019-04-16T01:15:25.557Z,7.8
2019-04-16T01:16:27.117Z,7.7
2019-04-16T01:17:28.505Z,7.8
2019-04-16T01:18:29.959Z,7.8
2019-04-16T01:19:31.352Z,7.7
2019-04-16T01:20:32.841Z,7.7
2019-04-16T01:21:34.239Z,7.7
2019-04-16T01:22:35.632Z,7.7
2019-04-16T01:23:37.224Z,7.7
2019-04-16T01:24:38.617Z,7.7
2019-04-16T01:25:40.015Z,7.7
2019-04-16T01:26:41.546Z,7.6
2019-04-16T01:27:42.943Z,7.7
2019-04-16T01:28:44.427Z,7.7
2019-04-16T01:29:45.822Z,7.7
2019-04-16T01:30:47.246Z,7.7
2019-04-16T01:31:48.642Z,7.7
2019-04-16T01:32:50.191Z,7.6
2019-04-16T01:33:51.584Z,7.6
2019-04-16T01:34:53.077Z,7.7
2019-04-16T01:35:54.469Z,7.6
2019-04-16T01:36:55.950Z,7.7
2019-04-16T01:37:57.489Z,7.7
2019-04-16T01:39:14.752Z,7.6
2019-04-16T01:40:00.199Z,7.5
2019-04-16T01:41:01.844Z,7.5
2019-04-16T01:42:03.009Z,7.5
2019-04-16T01:43:04.595Z,7.5
2019-04-16T01:44:06.199Z,7.4
2019-04-16T01:45:07.476Z,7.4
2019-04-16T01:46:08.878Z,7.4
2019-04-16T01:47:10.401Z,7.3
2019-04-16T01:48:11.751Z,7.4
2019-04-16T01:49:13.239Z,7.3
2019-04-16T01:50:14.633Z,7.3
2019-04-16T01:51:16.263Z,7.3
2019-04-16T01:52:18.954Z,7.3
2019-04-16T01:53:20.985Z,7.3
2019-04-16T01:54:22.599Z,7.3
2019-04-16T01:55:25.545Z,7.1
2019-04-16T01:56:27.966Z,7.2
2019-04-16T01:57:25.472Z,7.2
2019-04-16T01:58:27.036Z,7.2
2019-04-16T01:59:28.433Z,7.2
2019-04-16T02:00:29.862Z,7.1
2019-04-16T02:01:31.280Z,7.2
2019-04-16T02:02:32.675Z,7.2
2019-04-16T02:03:34.071Z,7.1
2019-04-16T02:04:35.604Z,7.2
2019-04-16T02:05:36.998Z,7.1
2019-04-16T02:06:38.395Z,7.2
2019-04-16T02:07:39.984Z,7.1
2019-04-16T02:08:41.374Z,7.2
2019-04-16T02:09:43.901Z,7.1
2019-04-16T02:10:45.296Z,7.1
2019-04-16T02:11:46.694Z,7.2
2019-04-16T02:12:48.144Z,7.1
2019-04-16T02:13:49.546Z,7.0
2019-04-16T02:14:51.140Z,7.0
2019-04-16T02:15:53.392Z,7.1
2019-04-16T02:16:56.022Z,7.0
2019-04-16T02:17:58.508Z,7.1
2019-04-16T02:19:00.755Z,7.0
2019-04-16T02:19:58.232Z,7.0
2019-04-16T02:20:59.786Z,7.0
2019-04-16T02:22:01.112Z,6.9
2019-04-16T02:23:02.506Z,7.0
2019-04-16T02:24:03.992Z,7.0
2019-04-16T02:25:05.389Z,7.0
2019-04-16T02:26:06.888Z,7.0
2019-04-16T02:27:08.556Z,7.0
2019-04-16T02:28:09.650Z,7.0
2019-04-16T02:29:11.198Z,7.0
2019-04-16T02:30:12.869Z,7.0
2019-04-16T02:31:15.994Z,6.9
2019-04-16T02:32:15.517Z,6.9
2019-04-16T02:33:16.913Z,6.9
2019-04-16T02:34:18.308Z,6.9
2019-04-16T02:35:19.840Z,6.9
2019-04-16T02:36:21.237Z,6.8
2019-04-16T02:37:22.629Z,6.8
2019-04-16T02:38:24.168Z,6.8
2019-04-16T02:39:46.323Z,6.8
2019-04-16T02:40:26.923Z,6.7
2019-04-16T02:41:28.482Z,6.7
2019-04-16T02:42:31.975Z,6.7
2019-04-16T02:43:31.244Z,6.7
2019-04-16T02:44:32.801Z,6.8
2019-04-16T02:45:34.209Z,6.8
2019-04-16T02:46:35.604Z,6.7
2019-04-16T02:47:41.963Z,6.8
2019-04-16T02:48:38.493Z,6.8
2019-04-16T02:49:40.005Z,6.8
2019-04-16T02:50:41.411Z,6.7
2019-04-16T02:51:42.886Z,6.7
2019-04-16T02:52:50.454Z,6.8
2019-04-16T02:53:45.768Z,6.8
2019-04-16T02:54:47.169Z,6.7
2019-04-16T02:55:48.651Z,6.7
2019-04-16T02:56:52.252Z,6.7
2019-04-16T02:57:51.409Z,6.7
2019-04-16T02:58:52.976Z,6.8
2019-04-16T02:59:54.363Z,6.6
2019-04-16T03:00:55.759Z,6.7
2019-04-16T03:01:57.353Z,6.6
2019-04-16T03:02:58.749Z,6.7
2019-04-16T03:04:00.235Z,6.6
2019-04-16T03:05:01.761Z,6.6
2019-04-16T03:06:03.114Z,6.6
2019-04-16T03:07:04.605Z,6.6
2019-04-16T03:08:06.236Z,6.6
2019-04-16T03:09:09.142Z,6.6
2019-04-16T03:10:12.077Z,6.6
2019-04-16T03:11:10.178Z,6.5
2019-04-16T03:12:11.766Z,6.5
2019-04-16T03:13:13.149Z,6.5
2019-04-16T03:14:14.682Z,6.5
2019-04-16T03:15:16.021Z,6.5
2019-04-16T03:16:17.416Z,6.6
2019-04-16T03:17:18.810Z,6.5
2019-04-16T03:18:20.400Z,6.5
2019-04-16T03:19:21.795Z,6.6
2019-04-16T03:20:23.984Z,6.5
2019-04-16T03:21:27.234Z,6.4
2019-04-16T03:22:26.078Z,6.3
2019-04-16T03:23:27.474Z,6.4
2019-04-16T03:24:29.050Z,6.3
2019-04-16T03:25:30.447Z,6.3
2019-04-16T03:26:31.923Z,6.3
2019-04-16T03:27:33.317Z,6.3
2019-04-16T03:28:34.804Z,6.3
2019-04-16T03:29:36.202Z,6.3
2019-04-16T03:30:42.397Z,6.3
2019-04-16T03:31:39.068Z,6.3
2019-04-16T03:32:40.567Z,6.3
2019-04-16T03:33:48.138Z,6.2
2019-04-16T03:34:43.446Z,6.3
2019-04-16T03:35:44.841Z,6.1
2019-04-16T03:36:46.405Z,6.2
2019-04-16T03:37:47.800Z,6.2
2019-04-16T03:38:49.193Z,6.2
2019-04-16T03:39:50.855Z,6.2
2019-04-16T03:40:55.888Z,6.2
2019-04-16T03:41:55.957Z,6.2
2019-04-16T03:42:59.017Z,6.2
2019-04-16T03:43:56.547Z,6.1
2019-04-16T03:44:57.949Z,6.1
2019-04-16T03:45:59.440Z,6.1
2019-04-16T03:47:00.836Z,6.2
2019-04-16T03:48:02.231Z,6.1
2019-04-16T03:49:03.982Z,6.1
2019-04-16T03:50:05.270Z,6.1
2019-04-16T03:51:06.731Z,6.1
2019-04-16T03:52:09.434Z,6.1
2019-04-16T03:53:09.700Z,6.1
2019-04-16T03:54:11.101Z,6.1
2019-04-16T03:55:12.665Z,6.1
2019-04-16T03:56:14.061Z,5.9
2019-04-16T03:57:15.458Z,5.9
2019-04-16T03:58:16.987Z,6.0
2019-04-16T03:59:18.381Z,6.0
2019-04-16T04:00:19.877Z,6.0
2019-04-16T04:01:21.262Z,6.0
2019-04-16T04:02:23.102Z,5.9
2019-04-16T04:03:26.110Z,5.9
2019-04-16T04:04:28.925Z,6.0
2019-04-16T04:05:26.907Z,6.0
2019-04-16T04:06:28.512Z,6.0
2019-04-16T04:07:29.908Z,6.0
2019-04-16T04:08:31.305Z,5.9
2019-04-16T04:09:32.832Z,5.9
2019-04-16T04:10:36.740Z,5.8
2019-04-16T04:11:35.586Z,5.7
2019-04-16T04:12:37.168Z,5.7
2019-04-16T04:13:38.568Z,5.7
2019-04-16T04:14:39.967Z,5.7
2019-04-16T04:15:41.476Z,5.8
2019-04-16T04:16:42.873Z,5.8
2019-04-16T04:17:44.268Z,5.7
2019-04-16T04:18:45.810Z,5.6
2019-04-16T04:19:47.203Z,5.7
2019-04-16T04:20:50.522Z,5.7
2019-04-16T04:21:50.592Z,5.6
2019-04-16T04:22:51.562Z,5.5
2019-04-16T04:23:52.957Z,5.5
2019-04-16T04:24:54.440Z,5.6
2019-04-16T04:25:55.900Z,5.6
2019-04-16T04:26:57.527Z,5.6
2019-04-16T04:27:58.923Z,5.6
2019-04-16T04:29:00.407Z,5.5
2019-04-16T04:30:01.805Z,5.5
2019-04-16T04:31:03.289Z,5.5
2019-04-16T04:32:04.692Z,5.4
2019-04-16T04:33:08.968Z,5.4
2019-04-16T04:34:09.961Z,5.4
2019-04-16T04:35:09.216Z,5.5
2019-04-16T04:36:10.595Z,5.4
2019-04-16T04:37:12.269Z,5.4
2019-04-16T04:38:13.608Z,5.4
2019-04-16T04:39:15.655Z,5.4
2019-04-16T04:40:17.431Z,5.3
2019-04-16T04:41:20.167Z,5.3
2019-04-16T04:42:19.601Z,5.3
2019-04-16T04:43:20.648Z,5.3
2019-04-16T04:44:22.168Z,5.3
2019-04-16T04:45:23.567Z,5.4
2019-04-16T04:46:25.049Z,5.4
2019-04-16T04:47:26.449Z,5.4
2019-04-16T04:48:27.928Z,5.4
2019-04-16T04:49:30.399Z,5.5
2019-04-16T04:50:32.423Z,5.4
2019-04-16T04:51:32.251Z,5.4
2019-04-16T04:52:33.650Z,5.4
2019-04-16T04:53:35.044Z,5.5
2019-04-16T04:54:36.577Z,5.6
2019-04-16T04:55:37.971Z,5.5
2019-04-16T04:56:39.369Z,5.5
2019-04-16T04:57:40.894Z,5.6
2019-04-16T04:58:42.295Z,5.5
2019-04-16T04:59:43.699Z,5.6
2019-04-16T05:00:45.228Z,5.7
2019-04-16T05:01:46.617Z,5.8
2019-04-16T05:02:48.016Z,5.7
2019-04-16T05:03:49.537Z,5.9
2019-04-16T05:04:52.356Z,5.8
2019-04-16T05:05:53.368Z,5.9
2019-04-16T05:06:54.326Z,5.9
2019-04-16T05:07:59.770Z,6.0
2019-04-16T05:08:57.643Z,6.1
2019-04-16T05:09:58.186Z,6.1
2019-04-16T05:11:02.780Z,6.0
2019-04-16T05:12:01.060Z,6.1
2019-04-16T05:13:02.460Z,6.1
2019-04-16T05:14:03.942Z,6.1
2019-04-16T05:15:05.349Z,6.1
2019-04-16T05:16:07.131Z,6.2
2019-04-16T05:17:08.184Z,6.2
2019-04-16T05:18:10.791Z,6.2
2019-04-16T05:19:13.847Z,6.3
2019-04-16T05:20:14.822Z,6.4
2019-04-16T05:21:17.824Z,6.5
2019-04-16T05:22:15.181Z,6.5
2019-04-16T05:23:16.703Z,6.6
2019-04-16T05:24:18.102Z,6.6
2019-04-16T05:25:19.599Z,6.6
2019-04-16T05:26:21.044Z,6.7
2019-04-16T05:27:22.462Z,6.8
2019-04-16T05:28:23.862Z,6.7
2019-04-16T05:29:25.346Z,6.8
2019-04-16T05:30:26.742Z,6.8
2019-04-16T05:31:30.901Z,6.9
2019-04-16T05:32:33.257Z,6.9
2019-04-16T05:33:31.106Z,7.0
2019-04-16T05:34:34.627Z,7.1
2019-04-16T05:35:33.867Z,7.2
2019-04-16T05:36:35.427Z,7.2
2019-04-16T05:37:36.825Z,7.3
2019-04-16T05:38:38.222Z,7.4
2019-04-16T05:39:39.751Z,7.4
2019-04-16T05:40:41.156Z,7.6
2019-04-16T05:41:42.557Z,7.7
2019-04-16T05:42:44.073Z,7.7
2019-04-16T05:43:45.471Z,7.8
2019-04-16T05:44:46.870Z,7.8
2019-04-16T05:45:48.395Z,8.0
2019-04-16T05:46:49.799Z,8.0
2019-04-16T05:47:51.275Z,8.1
2019-04-16T05:48:53.986Z,8.2
2019-04-16T05:49:54.452Z,8.2
2019-04-16T05:50:59.726Z,8.1
2019-04-16T05:51:57.046Z,8.4
2019-04-16T05:52:58.448Z,8.3
2019-04-16T05:53:59.919Z,8.4
2019-04-16T05:55:01.679Z,8.4
2019-04-16T05:56:02.809Z,8.5
2019-04-16T05:57:04.201Z,8.6
2019-04-16T05:58:05.679Z,8.7
2019-04-16T05:59:07.080Z,8.7
2019-04-16T06:00:10.284Z,8.9
2019-04-16T06:01:10.461Z,8.9
2019-04-16T06:02:11.370Z,9.0
2019-04-16T06:03:12.772Z,9.1
2019-04-16T06:04:14.439Z,9.1
2019-04-16T06:05:15.695Z,9.1
2019-04-16T06:06:17.212Z,9.3
2019-04-16T06:07:18.621Z,9.6
2019-04-16T06:08:20.085Z,9.8
2019-04-16T06:09:21.487Z,9.9
2019-04-16T06:10:22.979Z,10.0
2019-04-16T06:11:29.872Z,10.0
2019-04-16T06:12:25.852Z,10.1
2019-04-16T06:13:27.252Z,10.3
2019-04-16T06:14:28.755Z,10.4
2019-04-16T06:15:30.158Z,10.7
2019-04-16T06:16:31.816Z,11.1
2019-04-16T06:17:33.222Z,11.6
2019-04-16T06:18:37.421Z,12.0
2019-04-16T06:19:36.077Z,12.3
2019-04-16T06:20:37.480Z,13.1
2019-04-16T06:21:39.020Z,13.6
2019-04-16T06:22:40.426Z,14.3
2019-04-16T06:23:41.834Z,14.8
2019-04-16T06:24:43.341Z,15.0
2019-04-16T06:25:44.747Z,15.1
2019-04-16T06:26:47.375Z,15.3
2019-04-16T06:27:47.590Z,16.0
2019-04-16T06:28:49.108Z,16.6
2019-04-16T06:29:50.507Z,17.5
2019-04-16T06:30:51.984Z,18.1
2019-04-16T06:31:53.392Z,19.0
2019-04-16T06:32:54.864Z,19.5
2019-04-16T06:33:56.272Z,20.1
2019-04-16T06:34:57.748Z,20.4
2019-04-16T06:35:59.189Z,21.1
2019-04-16T06:37:00.593Z,21.1
2019-04-16T06:38:02.001Z,21.2
2019-04-16T06:39:03.519Z,21.6
2019-04-16T06:40:04.918Z,22.0
2019-04-16T06:41:06.322Z,22.0
2019-04-16T06:42:07.830Z,22.1
2019-04-16T06:43:09.237Z,22.6
2019-04-16T06:44:10.607Z,23.1
2019-04-16T06:45:12.153Z,23.4
2019-04-16T06:46:13.559Z,23.8
2019-04-16T06:47:15.249Z,24.5
2019-04-16T06:48:16.689Z,25.0
2019-04-16T06:49:18.901Z,25.5
2019-04-16T06:50:30.287Z,25.4
2019-04-16T06:51:21.000Z,25.4
2019-04-16T06:52:22.406Z,25.4
2019-04-16T06:53:24.953Z,25.5
2019-04-16T06:54:25.916Z,25.2
2019-04-16T06:55:26.761Z,25.8
2019-04-16T06:56:28.165Z,26.5
2019-04-16T06:57:29.643Z,26.8
2019-04-16T06:58:31.053Z,27.0
2019-04-16T06:59:32.614Z,26.6
2019-04-16T07:00:35.050Z,27.0
2019-04-16T07:01:37.357Z,26.8
2019-04-16T07:02:37.562Z,26.3
2019-04-16T07:03:38.287Z,26.3
2019-04-16T07:04:39.692Z,26.8
2019-04-16T07:05:41.102Z,27.1
2019-04-16T07:06:43.780Z,27.8
2019-04-16T07:07:46.859Z,28.0
2019-04-16T07:08:49.764Z,28.2
2019-04-16T07:09:46.929Z,28.6
2019-04-16T07:10:48.367Z,28.7
2019-04-16T07:11:54.664Z,29.1
2019-04-16T07:12:51.252Z,29.0
2019-04-16T07:13:52.695Z,29.2
2019-04-16T07:14:54.101Z,29.8
2019-04-16T07:15:57.025Z,30.3
2019-04-16T07:16:59.763Z,30.6
2019-04-16T07:17:58.686Z,30.9
2019-04-16T07:19:00.095Z,30.8
2019-04-16T07:20:04.472Z,31.2
2019-04-16T07:21:02.934Z,31.5
2019-04-16T07:22:04.423Z,31.3
2019-04-16T07:23:05.831Z,31.0
2019-04-16T07:24:07.305Z,29.6
2019-04-16T07:25:08.709Z,28.5
2019-04-16T07:26:13.518Z,27.3
2019-04-16T07:27:11.721Z,27.0
2019-04-16T07:28:13.058Z,26.8
2019-04-16T07:29:14.454Z,26.9
2019-04-16T07:30:19.690Z,26.8
2019-04-16T07:31:32.944Z,27.1
2019-04-16T07:32:18.713Z,26.6
2019-04-16T07:33:20.266Z,26.4
2019-04-16T07:34:21.673Z,26.1
2019-04-16T07:35:23.113Z,25.7
2019-04-16T07:36:27.022Z,25.6
2019-04-16T07:37:25.956Z,26.3
2019-04-16T07:38:27.365Z,27.3
2019-04-16T07:39:29.369Z,28.4
2019-04-16T07:40:30.281Z,29.2
2019-04-16T07:41:31.689Z,28.7
2019-04-16T07:42:33.230Z,28.3
2019-04-16T07:43:34.641Z,28.5
2019-04-16T07:44:36.527Z,28.6
2019-04-16T07:45:37.483Z,29.0
2019-04-16T07:46:38.888Z,29.6
2019-04-16T07:47:40.437Z,30.4
2019-04-16T07:48:41.842Z,30.5
2019-04-16T07:49:43.258Z,30.7
2019-04-16T07:50:44.757Z,31.0
2019-04-16T07:51:46.183Z,31.2
2019-04-16T07:52:47.573Z,31.2
2019-04-16T07:53:49.081Z,31.3
2019-04-16T07:54:50.485Z,31.3
2019-04-16T07:55:51.894Z,31.6
2019-04-16T07:56:53.402Z,30.9
2019-04-16T07:57:54.806Z,30.1
2019-04-16T07:59:00.168Z,29.1
2019-04-16T07:59:57.725Z,29.0
2019-04-16T08:00:59.131Z,29.2
2019-04-16T08:02:00.538Z,29.1
2019-04-16T08:03:02.045Z,29.8
2019-04-16T08:04:03.655Z,30.7
2019-04-16T08:05:07.497Z,30.4
2019-04-16T08:06:06.305Z,31.3
2019-04-16T08:07:07.708Z,32.4
2019-04-16T08:08:09.248Z,33.1
2019-04-16T08:09:10.656Z,33.9
2019-04-16T08:10:12.065Z,34.0
2019-04-16T08:11:13.570Z,33.5
2019-04-16T08:12:29.281Z,34.1
2019-04-16T08:13:16.347Z,34.2
2019-04-16T08:14:17.884Z,34.3
2019-04-16T08:15:19.295Z,34.5
2019-04-16T08:16:20.703Z,34.0
2019-04-16T08:17:22.211Z,33.0
2019-04-16T08:18:23.689Z,33.0
2019-04-16T08:19:36.212Z,32.9
2019-04-16T08:20:26.536Z,32.8
2019-04-16T08:21:27.942Z,33.1
2019-04-16T08:22:29.490Z,32.9
2019-04-16T08:23:30.855Z,33.1
2019-04-16T08:24:32.263Z,32.7
2019-04-16T08:25:33.973Z,33.1
2019-04-16T08:26:35.177Z,33.0
2019-04-16T08:27:36.584Z,33.0
2019-04-16T08:28:37.990Z,33.3
2019-04-16T08:29:39.496Z,34.0
2019-04-16T08:30:40.925Z,34.7
2019-04-16T08:31:44.506Z,35.3
2019-04-16T08:32:45.856Z,33.7
2019-04-16T08:33:45.202Z,33.4
2019-04-16T08:34:46.789Z,33.1
2019-04-16T08:35:48.142Z,32.3
2019-04-16T08:36:49.619Z,32.1
2019-04-16T08:37:51.024Z,31.7
2019-04-16T08:38:52.498Z,30.9
2019-04-16T08:39:53.907Z,31.4
2019-04-16T08:40:55.385Z,32.1
2019-04-16T08:41:56.788Z,31.8
2019-04-16T08:42:58.571Z,30.7
2019-04-16T08:44:03.327Z,30.5
2019-04-16T08:45:01.103Z,30.8
2019-04-16T08:46:02.509Z,31.5
2019-04-16T08:47:03.986Z,31.3
2019-04-16T08:48:06.525Z,31.9
2019-04-16T08:49:06.868Z,32.4
2019-04-16T08:50:11.387Z,33.9
2019-04-16T08:51:09.653Z,34.8
2019-04-16T08:52:11.439Z,36.0
2019-04-16T08:53:14.237Z,37.3
2019-04-16T08:54:17.907Z,38.7
2019-04-16T08:55:15.509Z,39.5
2019-04-16T08:56:17.129Z,40.2
2019-04-16T08:57:18.289Z,40.3
2019-04-16T08:58:19.830Z,41.1
2019-04-16T08:59:21.246Z,41.6
2019-04-16T09:00:22.653Z,41.4
2019-04-16T09:01:24.156Z,40.6
2019-04-16T09:02:27.070Z,41.1
2019-04-16T09:03:29.931Z,40.1
2019-04-16T09:04:28.477Z,40.9
2019-04-16T09:05:29.894Z,41.3
2019-04-16T09:06:31.302Z,41.6
2019-04-16T09:07:32.795Z,42.2
2019-04-16T09:08:34.207Z,42.4
2019-04-16T09:09:35.675Z,42.9
2019-04-16T09:10:37.132Z,43.3
2019-04-16T09:11:38.556Z,43.6
2019-04-16T09:12:44.955Z,44.0
2019-04-16T09:13:41.349Z,44.3
2019-04-16T09:14:42.878Z,44.5
2019-04-16T09:15:44.291Z,45.2
2019-04-16T09:16:45.692Z,45.1
2019-04-16T09:17:47.201Z,44.9
2019-04-16T09:18:48.630Z,44.7
2019-04-16T09:19:50.024Z,44.5
2019-04-16T09:20:51.523Z,44.6
2019-04-16T09:21:52.930Z,44.3
2019-04-16T09:22:54.636Z,44.3
2019-04-16T09:24:02.516Z,44.2
2019-04-16T09:24:57.695Z,44.4
2019-04-16T09:26:12.137Z,44.2
2019-04-16T09:26:59.967Z,43.7
2019-04-16T09:28:01.898Z,43.8
2019-04-16T09:29:08.442Z,44.7
2019-04-16T09:30:04.215Z,43.9
2019-04-16T09:31:05.731Z,43.0
2019-04-16T09:32:07.345Z,41.6
2019-04-16T09:33:08.534Z,40.5
2019-04-16T09:34:09.954Z,40.0
2019-04-16T09:35:18.072Z,38.8
2019-04-16T09:36:12.927Z,39.1
2019-04-16T09:37:14.339Z,39.7
2019-04-16T09:38:15.804Z,41.1
2019-04-16T09:39:20.246Z,42.1
2019-04-16T09:40:18.698Z,42.9
2019-04-16T09:41:20.098Z,43.8
2019-04-16T09:42:21.512Z,44.7
2019-04-16T09:43:23.014Z,46.0
2019-04-16T09:44:29.724Z,46.4
2019-04-16T09:45:25.799Z,46.5
2019-04-16T09:46:49.750Z,46.4
2019-04-16T09:47:28.937Z,46.5
2019-04-16T09:48:34.077Z,46.6
2019-04-16T09:49:34.419Z,47.3
2019-04-16T09:50:33.063Z,47.4
2019-04-16T09:51:34.532Z,47.1
2019-04-16T09:52:35.944Z,47.4
2019-04-16T09:53:40.013Z,47.9
2019-04-16T09:54:41.482Z,47.9
2019-04-16T09:55:40.329Z,47.9
2019-04-16T09:56:41.740Z,48.5
2019-04-16T09:57:43.162Z,49.1
2019-04-16T09:58:44.652Z,49.7
2019-04-16T09:59:47.735Z,49.5
2019-04-16T10:00:47.443Z,48.3
2019-04-16T10:01:48.938Z,47.4
2019-04-16T10:02:50.353Z,46.6
2019-04-16T10:03:53.647Z,46.4
2019-04-16T10:04:53.195Z,46.4
2019-04-16T10:05:54.700Z,45.7
2019-04-16T10:06:56.132Z,43.7
2019-04-16T10:07:57.580Z,41.8
2019-04-16T10:08:58.988Z,40.6
2019-04-16T10:10:00.462Z,39.7
2019-04-16T10:11:05.746Z,38.9
2019-04-16T10:12:05.038Z,39.0
2019-04-16T10:13:04.744Z,40.0
2019-04-16T10:14:06.259Z,42.0
2019-04-16T10:15:07.668Z,43.8
2019-04-16T10:16:09.125Z,44.8
2019-04-16T10:17:10.531Z,45.8
2019-04-16T10:18:12.030Z,46.6
2019-04-16T10:19:13.436Z,45.7
2019-04-16T10:20:14.949Z,44.3
2019-04-16T10:21:18.871Z,42.4
2019-04-16T10:22:18.046Z,41.2
2019-04-16T10:23:19.220Z,39.5
2019-04-16T10:24:20.647Z,38.3
2019-04-16T10:25:22.104Z,37.3
2019-04-16T10:26:23.565Z,37.3
2019-04-16T10:27:24.967Z,37.2
2019-04-16T10:28:26.424Z,37.4
2019-04-16T10:29:27.832Z,37.1
2019-04-16T10:30:30.190Z,36.7
2019-04-16T10:31:30.697Z,36.7
2019-04-16T10:32:32.182Z,36.4
2019-04-16T10:33:33.627Z,37.3
2019-04-16T10:34:36.302Z,38.5
2019-04-16T10:35:36.421Z,39.6
2019-04-16T10:36:38.180Z,41.4
2019-04-16T10:37:39.327Z,42.2
2019-04-16T10:38:40.726Z,42.3
2019-04-16T10:39:42.291Z,43.0
2019-04-16T10:40:43.681Z,42.8
2019-04-16T10:41:45.092Z,40.3
2019-04-16T10:42:46.591Z,38.5
2019-04-16T10:43:48.004Z,37.2
2019-04-16T10:44:49.494Z,35.9
2019-04-16T10:45:50.884Z,34.3
2019-04-16T10:46:52.358Z,33.0
2019-04-16T10:47:53.756Z,32.2
2019-04-16T10:48:55.234Z,31.4
2019-04-16T10:49:56.641Z,30.5
2019-04-16T10:50:58.112Z,29.6
2019-04-16T10:51:59.524Z,29.2
2019-04-16T10:53:01.005Z,28.7
2019-04-16T10:54:02.408Z,28.7
2019-04-16T10:55:03.910Z,29.2
2019-04-16T10:56:05.527Z,29.1
2019-04-16T10:57:10.140Z,29.4
2019-04-16T10:58:08.368Z,29.3
2019-04-16T10:59:09.851Z,28.7
2019-04-16T11:00:11.246Z,28.8
2019-04-16T11:01:12.681Z,27.7
2019-04-16T11:02:14.272Z,27.9
2019-04-16T11:03:15.558Z,28.2
2019-04-16T11:04:16.942Z,28.5
2019-04-16T11:05:19.239Z,29.4
2019-04-16T11:06:19.888Z,30.9
2019-04-16T11:07:21.365Z,31.9
2019-04-16T11:08:22.848Z,32.5
2019-04-16T11:09:24.449Z,33.1
2019-04-16T11:10:25.875Z,34.3
2019-04-16T11:11:27.332Z,35.2
2019-04-16T11:12:28.757Z,36.1
2019-04-16T11:13:30.219Z,35.6
2019-04-16T11:14:31.628Z,35.7
2019-04-16T11:15:33.299Z,35.5
2019-04-16T11:16:35.980Z,35.1
2019-04-16T11:17:36.180Z,34.6
2019-04-16T11:18:37.587Z,34.3
2019-04-16T11:19:39.059Z,34.0
2019-04-16T11:20:40.487Z,34.0
2019-04-16T11:21:41.975Z,33.7
2019-04-16T11:22:43.438Z,33.3
2019-04-16T11:23:44.716Z,32.8
2019-04-16T11:24:46.269Z,32.5
2019-04-16T11:25:47.668Z,32.0
2019-04-16T11:26:49.085Z,31.8
2019-04-16T11:27:50.585Z,31.2
2019-04-16T11:28:51.992Z,30.5
2019-04-16T11:29:53.401Z,30.1
2019-04-16T11:30:54.911Z,29.9
2019-04-16T11:31:56.325Z,29.9
2019-04-16T11:32:57.754Z,30.1
2019-04-16T11:33:59.226Z,30.4
2019-04-16T11:35:00.687Z,30.4
2019-04-16T11:36:16.330Z,30.5
2019-04-16T11:37:07.813Z,29.8
2019-04-16T11:38:05.327Z,29.0
2019-04-16T11:39:06.570Z,28.5
2019-04-16T11:40:08.179Z,28.1
2019-04-16T11:41:09.530Z,26.8
2019-04-16T11:42:11.055Z,26.1
2019-04-16T11:43:12.438Z,25.8
2019-04-16T11:44:16.725Z,25.7
2019-04-16T11:45:15.418Z,25.8
2019-04-16T11:46:16.810Z,26.0
2019-04-16T11:47:18.392Z,26.5
2019-04-16T11:48:19.791Z,27.3
2019-04-16T11:49:21.387Z,27.8
2019-04-16T11:50:22.719Z,28.1
2019-04-16T11:51:24.093Z,28.9
2019-04-16T11:52:25.498Z,29.6
2019-04-16T11:53:27.005Z,30.2
2019-04-16T11:54:28.441Z,30.4
2019-04-16T11:55:29.916Z,31.2
2019-04-16T11:56:31.334Z,31.1
2019-04-16T11:57:33.349Z,30.2
2019-04-16T11:58:34.174Z,28.6
2019-04-16T11:59:38.085Z,27.9
2019-04-16T12:00:37.173Z,27.2
2019-04-16T12:01:38.496Z,26.3
2019-04-16T12:02:39.872Z,25.7
2019-04-16T12:03:41.426Z,25.5
2019-04-16T12:04:42.827Z,25.5
2019-04-16T12:05:44.354Z,25.5
2019-04-16T12:06:45.936Z,25.3
2019-04-16T12:07:47.423Z,25.4
2019-04-16T12:08:48.788Z,25.2
2019-04-16T12:09:50.263Z,25.1
2019-04-16T12:10:51.691Z,25.1
2019-04-16T12:11:53.091Z,24.7
2019-04-16T12:12:54.582Z,24.6
2019-04-16T12:13:55.992Z,24.4
2019-04-16T12:14:57.388Z,24.4
2019-04-16T12:15:58.901Z,24.4
2019-04-16T12:17:00.320Z,24.2
2019-04-16T12:18:02.074Z,24.1
2019-04-16T12:19:03.217Z,23.9
2019-04-16T12:20:04.663Z,23.9
2019-04-16T12:21:06.074Z,23.6
2019-04-16T12:22:07.583Z,23.7
2019-04-16T12:23:08.955Z,23.7
2019-04-16T12:24:10.428Z,23.6
2019-04-16T12:25:11.826Z,23.2
2019-04-16T12:26:13.318Z,23.0
2019-04-16T12:27:14.707Z,23.2
2019-04-16T12:28:16.177Z,22.9
2019-04-16T12:29:17.593Z,22.9
2019-04-16T12:30:19.046Z,22.8
2019-04-16T12:31:20.469Z,22.8
2019-04-16T12:32:21.957Z,22.6
2019-04-16T12:33:23.489Z,22.5
2019-04-16T12:34:24.861Z,22.5
2019-04-16T12:35:26.347Z,22.5
2019-04-16T12:36:27.750Z,22.5
2019-04-16T12:37:29.161Z,22.1
2019-04-16T12:38:30.615Z,22.2
2019-04-16T12:39:35.447Z,22.3
2019-04-16T12:40:33.545Z,22.3
2019-04-16T12:41:34.889Z,22.5
2019-04-16T12:42:41.243Z,22.4
2019-04-16T12:43:37.696Z,22.5
2019-04-16T12:44:45.556Z,22.4
2019-04-16T12:45:40.674Z,22.5
2019-04-16T12:46:42.094Z,22.3
2019-04-16T12:47:43.534Z,22.3
2019-04-16T12:48:44.932Z,22.3
2019-04-16T12:49:46.348Z,22.0
2019-04-16T12:50:47.754Z,22.2
2019-04-16T12:51:49.317Z,22.1
2019-04-16T12:52:51.945Z,22.2
2019-04-16T12:53:53.373Z,22.3
2019-04-16T12:54:58.262Z,22.1
2019-04-16T12:55:54.974Z,22.1
2019-04-16T12:56:56.536Z,22.1
2019-04-16T12:57:59.027Z,22.0
2019-04-16T12:58:59.294Z,22.0
2019-04-16T13:00:01.013Z,22.0
2019-04-16T13:01:03.166Z,21.8
2019-04-16T13:02:03.580Z,21.8
2019-04-16T13:03:05.329Z,21.8
2019-04-16T13:04:06.536Z,21.9
2019-04-16T13:05:08.208Z,22.0
2019-04-16T13:06:09.537Z,21.9
2019-04-16T13:07:10.893Z,21.7
2019-04-16T13:08:12.297Z,21.6
2019-04-16T13:09:13.803Z,21.5
2019-04-16T13:10:15.219Z,21.6
2019-04-16T13:11:16.700Z,21.7
2019-04-16T13:12:18.102Z,21.7
2019-04-16T13:13:19.566Z,21.5
2019-04-16T13:14:20.970Z,21.6
2019-04-16T13:15:22.379Z,21.6
2019-04-16T13:16:23.887Z,21.6
2019-04-16T13:17:25.357Z,21.6
2019-04-16T13:18:26.764Z,21.7
2019-04-16T13:19:28.273Z,21.6
2019-04-16T13:20:30.165Z,21.6
2019-04-16T13:21:31.089Z,21.5
2019-04-16T13:22:32.508Z,21.3
2019-04-16T13:23:33.974Z,21.4
2019-04-16T13:24:35.389Z,21.2
2019-04-16T13:25:36.788Z,21.2
2019-04-16T13:26:38.292Z,21.2
2019-04-16T13:27:39.697Z,21.2
2019-04-16T13:28:41.105Z,21.3
2019-04-16T13:29:42.613Z,21.3
2019-04-16T13:30:44.018Z,21.2
2019-04-16T13:31:45.426Z,21.1
2019-04-16T13:32:46.933Z,21.0
2019-04-16T13:33:50.755Z,21.0
2019-04-16T13:34:49.728Z,21.0
2019-04-16T13:35:51.260Z,21.0
2019-04-16T13:36:52.659Z,21.1
2019-04-16T13:37:54.063Z,21.1
2019-04-16T13:38:55.576Z,21.1
2019-04-16T13:39:59.480Z,21.1
2019-04-16T13:41:01.175Z,21.0
2019-04-16T13:41:59.897Z,21.1
2019-04-16T13:43:04.753Z,21.0
2019-04-16T13:44:07.773Z,21.0
2019-04-16T13:45:15.784Z,21.0
2019-04-16T13:46:05.546Z,20.8
2019-04-16T13:47:07.260Z,20.7
2019-04-16T13:48:16.500Z,20.9
2019-04-16T13:49:10.046Z,20.9
2019-04-16T13:50:11.629Z,20.7